Terminal Aerodrome Forecast
Issued by NWS Louisville, KY

Home | Current Version | Previous Version | Text Only | Print | Product List | Glossary On
Versions: 1 2 3 4 5 6 7 8 9 10 11 12 13 14 15 16 17 18
000
FTUS43 KLMK 141127
TAFBWG
TAF
KBWG 141127Z 1412/1512 VRB03KT 6SM BR FEW010
      TEMPO 1412/1413 5SM BR
     FM141400 19006KT P6SM SCT015
     FM141700 21011KT P6SM SCT025 SCT250
     FM142300 19008KT P6SM FEW030 BKN250
     FM151100 20011KT P6SM BKN080=

USA.gov is the U.S. government's official web portal to all federal, state and local government web resources and services.